Time;durP1;ratioP1;P1;durP2;ratioP2;P2;SDS_P1;SDS_P2;PMS_P1;PMS_P2;Temp;Humidity;BMP_temperature;BMP_pressure;BME280_temperature;BME280_humidity;BME280_pressure;Samples;Min_cycle;Max_cycle;Signal;HPM_P1;HPM_P2
2023/03/03 00:01:10;;;;;;;134.73;12.07;;;1.70;99.90;;;;;;4974070;28;20035;-63
2023/03/03 00:03:36;;;;;;;198.30;12.38;;;1.70;99.90;;;;;;4977193;28;20057;-63
2023/03/03 00:06:03;;;;;;;318.50;15.00;;;1.70;99.90;;;;;;4975452;28;20521;-63
2023/03/03 00:08:31;;;;;;;218.95;13.18;;;1.70;99.90;;;;;;4942835;28;20046;-63
2023/03/03 00:10:59;;;;;;;282.30;13.35;;;1.70;99.90;;;;;;4977141;28;20042;-63
2023/03/03 00:13:26;;;;;;;217.70;11.82;;;1.60;99.90;;;;;;4976914;28;20038;-62
2023/03/03 00:15:53;;;;;;;302.48;12.75;;;1.60;99.90;;;;;;4961625;28;20054;-63
2023/03/03 00:18:30;;;;;;;261.80;12.48;;;1.60;99.90;;;;;;4959477;28;20401;-63
2023/03/03 00:20:59;;;;;;;275.95;13.27;;;1.60;99.90;;;;;;4977084;28;20169;-63
2023/03/03 00:23:37;;;;;;;297.77;12.85;;;1.60;99.90;;;;;;4963026;28;20042;-63
2023/03/03 00:26:20;;;;;;;203.88;11.10;;;1.60;99.90;;;;;;4980801;28;20593;-63
2023/03/03 00:28:51;;;;;;;338.10;13.85;;;1.60;99.90;;;;;;4982131;28;20039;-63
2023/03/03 00:31:20;;;;;;;383.25;14.50;;;1.50;99.90;;;;;;4977170;28;20059;-62
2023/03/03 00:33:53;;;;;;;160.63;10.70;;;1.50;99.90;;;;;;4954066;28;20620;-63
2023/03/03 00:36:38;;;;;;;207.75;12.20;;;1.50;99.90;;;;;;4969369;28;20057;-63
2023/03/03 00:39:31;;;;;;;188.00;11.18;;;1.50;99.90;;;;;;4970384;28;20063;-63
2023/03/03 00:41:59;;;;;;;240.85;11.43;;;1.60;99.90;;;;;;4984725;28;20043;-63
2023/03/03 00:44:40;;;;;;;132.07;9.77;;;1.50;99.90;;;;;;4988302;28;20129;-63
2023/03/03 00:47:17;;;;;;;315.13;13.90;;;1.50;99.90;;;;;;4990053;28;20101;-63
2023/03/03 00:49:43;;;;;;;208.25;11.02;;;1.50;99.90;;;;;;4989893;28;20057;-63
2023/03/03 00:52:16;;;;;;;334.27;12.98;;;1.50;99.90;;;;;;4961820;28;20042;-63
2023/03/03 00:54:42;;;;;;;360.75;15.88;;;1.50;99.90;;;;;;4971198;28;20070;-63
2023/03/03 00:57:08;;;;;;;307.48;13.40;;;1.50;99.90;;;;;;4951782;28;20509;-63
2023/03/03 00:59:33;;;;;;;227.02;11.88;;;1.50;99.90;;;;;;4971250;28;20604;-63
2023/03/03 01:01:59;;;;;;;287.50;12.63;;;1.50;99.90;;;;;;4967731;28;20043;-63
2023/03/03 01:04:25;;;;;;;374.83;15.80;;;1.50;99.90;;;;;;4952908;28;20090;-63
2023/03/03 01:06:51;;;;;;;324.80;13.55;;;1.50;99.90;;;;;;4965659;28;20050;-63
2023/03/03 01:09:17;;;;;;;138.02;10.73;;;1.40;99.90;;;;;;4942896;28;20424;-63
2023/03/03 01:11:43;;;;;;;106.45;10.50;;;1.40;99.90;;;;;;4970171;28;20046;-63
2023/03/03 01:14:08;;;;;;;149.65;10.68;;;1.30;99.90;;;;;;4972641;28;20453;-63
2023/03/03 01:16:34;;;;;;;222.43;11.40;;;1.30;99.90;;;;;;4955593;28;20039;-63
2023/03/03 01:19:00;;;;;;;140.45;10.20;;;1.30;99.90;;;;;;4968404;28;20426;-63
2023/03/03 01:21:26;;;;;;;120.25;9.18;;;1.20;99.90;;;;;;4970247;28;20572;-63
2023/03/03 01:23:51;;;;;;;119.93;9.32;;;1.20;99.90;;;;;;4972024;28;20508;-63
2023/03/03 01:26:17;;;;;;;183.45;10.55;;;1.10;99.90;;;;;;4969650;28;20054;-63
2023/03/03 01:28:43;;;;;;;203.38;11.20;;;1.00;99.90;;;;;;4969738;28;20078;-63
2023/03/03 01:31:08;;;;;;;272.63;12.25;;;0.90;99.90;;;;;;4968557;28;20121;-63
2023/03/03 01:33:35;;;;;;;293.92;12.25;;;0.90;99.90;;;;;;4971191;28;20060;-63
2023/03/03 01:36:02;;;;;;;275.98;11.98;;;0.90;99.90;;;;;;4966946;28;20589;-63
2023/03/03 01:38:28;;;;;;;260.85;12.30;;;0.80;99.90;;;;;;4969754;28;20079;-63
2023/03/03 01:40:56;;;;;;;356.90;12.60;;;0.80;99.90;;;;;;4968307;28;20081;-63
2023/03/03 01:43:22;;;;;;;319.55;13.75;;;0.80;99.90;;;;;;4969328;28;20145;-63
2023/03/03 01:45:47;;;;;;;413.60;15.18;;;0.80;99.90;;;;;;4980517;28;20082;-63
2023/03/03 01:48:27;;;;;;;340.08;12.00;;;0.80;99.90;;;;;;4968479;28;20043;-63
2023/03/03 01:51:16;;;;;;;363.38;12.93;;;0.90;99.90;;;;;;4959800;28;20073;-63
2023/03/03 01:53:46;;;;;;;269.08;11.98;;;0.80;99.90;;;;;;4957913;28;20544;-63
2023/03/03 01:56:12;;;;;;;173.48;10.55;;;0.80;99.90;;;;;;4969483;28;20070;-63
2023/03/03 01:58:46;;;;;;;309.17;16.10;;;0.80;99.90;;;;;;4968341;28;20157;-63
2023/03/03 02:01:16;;;;;;;409.42;16.73;;;0.80;99.90;;;;;;4955636;28;20062;-63
2023/03/03 02:03:43;;;;;;;285.30;16.10;;;0.90;99.90;;;;;;4982921;28;20054;-63
2023/03/03 02:06:14;;;;;;;292.70;14.82;;;0.80;99.90;;;;;;4974480;28;20055;-63
2023/03/03 02:08:54;;;;;;;244.57;13.73;;;0.90;99.90;;;;;;4969590;28;20047;-63
2023/03/03 02:11:21;;;;;;;325.42;15.95;;;0.90;99.90;;;;;;4967521;28;20637;-63
2023/03/03 02:13:47;;;;;;;219.80;13.20;;;0.80;99.90;;;;;;4969264;28;20035;-63
2023/03/03 02:16:14;;;;;;;209.52;13.82;;;0.90;99.90;;;;;;4946019;28;20108;-63
2023/03/03 02:18:39;;;;;;;250.57;14.32;;;0.80;99.90;;;;;;4976439;28;20057;-63
2023/03/03 02:21:08;;;;;;;325.85;17.02;;;0.90;99.90;;;;;;4969250;28;20039;-63
2023/03/03 02:24:01;;;;;;;338.38;16.42;;;0.90;99.90;;;;;;4966812;28;20054;-63
2023/03/03 02:26:29;;;;;;;413.00;19.83;;;0.90;99.90;;;;;;4973425;28;20490;-63
2023/03/03 02:28:54;;;;;;;412.73;18.52;;;0.90;99.90;;;;;;4950328;28;20055;-63
2023/03/03 02:31:24;;;;;;;423.65;19.38;;;1.00;99.90;;;;;;4974212;28;20539;-63
2023/03/03 02:33:51;;;;;;;505.77;23.37;;;1.00;99.90;;;;;;4968927;28;20047;-63
2023/03/03 02:36:22;;;;;;;439.83;21.00;;;1.00;99.90;;;;;;4969123;28;20061;-64
2023/03/03 02:38:50;;;;;;;400.00;17.38;;;1.00;99.90;;;;;;4968914;28;20054;-63
2023/03/03 02:41:27;;;;;;;276.10;12.88;;;1.00;99.90;;;;;;4967164;28;20050;-63
2023/03/03 02:44:06;;;;;;;262.58;10.38;;;1.00;99.90;;;;;;4967320;28;20077;-63
2023/03/03 02:46:35;;;;;;;210.45;9.05;;;1.10;99.90;;;;;;4968278;28;20047;-63
2023/03/03 02:49:01;;;;;;;232.43;9.40;;;1.10;99.90;;;;;;4967418;28;20053;-63
2023/03/03 02:51:27;;;;;;;254.93;9.25;;;1.10;99.90;;;;;;4969163;28;20065;-63
2023/03/03 02:53:53;;;;;;;223.65;8.98;;;0.90;99.90;;;;;;4949165;28;20059;-63
2023/03/03 02:56:18;;;;;;;257.30;7.72;;;0.90;99.90;;;;;;4964536;28;20042;-63
2023/03/03 02:58:44;;;;;;;330.80;8.80;;;0.80;99.90;;;;;;4967171;28;20050;-63
2023/03/03 03:01:10;;;;;;;324.52;8.48;;;0.70;99.90;;;;;;4961447;28;20375;-63
2023/03/03 03:03:36;;;;;;;347.77;9.43;;;0.60;99.90;;;;;;4952064;28;20081;-63
2023/03/03 03:06:02;;;;;;;247.93;7.57;;;0.60;99.90;;;;;;4967403;28;20565;-63
2023/03/03 03:08:28;;;;;;;186.82;6.38;;;0.50;99.90;;;;;;4978954;28;20047;-63
2023/03/03 03:10:55;;;;;;;235.10;7.47;;;0.50;99.90;;;;;;4949239;28;20367;-63
2023/03/03 03:13:22;;;;;;;230.68;7.72;;;0.40;99.90;;;;;;4968379;28;20050;-63
2023/03/03 03:15:48;;;;;;;129.35;6.45;;;0.40;99.90;;;;;;4966822;28;20133;-63
2023/03/03 03:18:14;;;;;;;101.47;6.30;;;0.40;99.90;;;;;;4951780;28;20197;-63
2023/03/03 03:20:40;;;;;;;119.60;6.63;;;0.20;99.90;;;;;;4959229;28;20081;-63
2023/03/03 03:23:07;;;;;;;54.38;5.80;;;0.10;99.90;;;;;;4967702;28;20098;-63
2023/03/03 03:25:33;;;;;;;77.50;5.80;;;0.10;99.90;;;;;;4949758;28;20050;-63
2023/03/03 03:28:00;;;;;;;69.35;5.85;;;0.00;99.90;;;;;;4966787;28;20470;-63
2023/03/03 03:30:26;;;;;;;179.07;7.40;;;-0.10;99.90;;;;;;4977091;28;20039;-63
2023/03/03 03:32:52;;;;;;;90.35;5.97;;;-0.10;99.90;;;;;;4966099;28;20039;-63
2023/03/03 03:35:18;;;;;;;105.78;6.63;;;-0.10;99.90;;;;;;4968090;28;20053;-63
2023/03/03 03:37:44;;;;;;;57.38;6.68;;;-0.20;99.90;;;;;;4965939;28;20051;-63
2023/03/03 03:40:10;;;;;;;77.18;6.50;;;-0.30;99.90;;;;;;4952449;28;20041;-63
2023/03/03 03:42:37;;;;;;;138.25;6.82;;;-0.30;99.90;;;;;;4952232;28;20117;-63
2023/03/03 03:45:03;;;;;;;171.25;7.47;;;-0.30;99.90;;;;;;4975167;28;20114;-63
2023/03/03 03:47:29;;;;;;;202.70;8.13;;;-0.30;99.90;;;;;;4977720;28;20054;-63
2023/03/03 03:49:55;;;;;;;167.38;7.47;;;-0.30;99.90;;;;;;4934865;28;20050;-63
2023/03/03 03:52:20;;;;;;;184.38;7.95;;;-0.30;99.90;;;;;;4958818;28;20043;-63
2023/03/03 03:54:46;;;;;;;357.58;10.02;;;-0.40;99.90;;;;;;4965652;28;20089;-63
2023/03/03 03:57:12;;;;;;;324.80;9.30;;;-0.40;99.90;;;;;;4967833;28;20051;-63
2023/03/03 03:59:38;;;;;;;257.60;7.95;;;-0.40;99.90;;;;;;4972270;28;20046;-63
2023/03/03 04:02:03;;;;;;;120.75;6.38;;;-0.40;99.90;;;;;;4973297;28;20051;-64
2023/03/03 04:04:29;;;;;;;280.60;8.40;;;-0.50;99.90;;;;;;4972087;28;20075;-63
2023/03/03 04:06:55;;;;;;;85.03;6.35;;;-0.40;99.90;;;;;;4972236;28;20047;-64
2023/03/03 04:09:21;;;;;;;140.35;6.78;;;-0.50;99.90;;;;;;4972571;28;20051;-63
2023/03/03 04:11:46;;;;;;;59.17;7.03;;;-0.50;99.90;;;;;;4977696;28;20056;-63
2023/03/03 04:14:12;;;;;;;215.02;8.07;;;-0.50;99.90;;;;;;4982335;28;20549;-63
2023/03/03 04:16:38;;;;;;;107.25;7.20;;;-0.60;99.90;;;;;;4983776;28;20046;-63
2023/03/03 04:19:03;;;;;;;62.45;6.85;;;-0.70;99.90;;;;;;4978180;28;20488;-63
2023/03/03 04:21:29;;;;;;;60.53;6.78;;;-0.70;99.90;;;;;;4985127;28;20100;-63
2023/03/03 04:23:55;;;;;;;67.88;7.47;;;-0.70;99.90;;;;;;4979892;28;20528;-63
2023/03/03 04:26:21;;;;;;;22.63;6.03;;;-0.80;99.90;;;;;;4984123;28;20038;-63
2023/03/03 04:28:46;;;;;;;46.53;7.28;;;-0.80;99.90;;;;;;4979497;28;20180;-63
2023/03/03 04:31:12;;;;;;;25.85;6.90;;;-0.80;99.90;;;;;;4982405;28;20050;-63
2023/03/03 04:33:38;;;;;;;19.42;6.70;;;-0.80;99.90;;;;;;4983062;28;20053;-63
2023/03/03 04:36:04;;;;;;;10.63;7.25;;;-0.90;99.90;;;;;;4979591;28;20059;-63
2023/03/03 04:38:30;;;;;;;18.20;7.10;;;-0.90;99.90;;;;;;4965822;28;20051;-63
2023/03/03 04:40:56;;;;;;;10.68;7.38;;;-1.00;99.90;;;;;;4978660;28;20496;-63
2023/03/03 04:43:22;;;;;;;8.10;5.93;;;-1.00;99.90;;;;;;4977295;28;20049;-63
2023/03/03 04:45:48;;;;;;;6.88;5.82;;;-1.00;99.90;;;;;;4951439;28;20137;-63
2023/03/03 04:48:13;;;;;;;9.43;5.00;;;-1.00;99.90;;;;;;4981773;28;20042;-63
2023/03/03 04:50:41;;;;;;;5.75;5.15;;;-1.10;99.90;;;;;;4977215;28;20054;-63
2023/03/03 04:53:06;;;;;;;5.90;5.20;;;-1.10;99.90;;;;;;4981001;28;20038;-63
2023/03/03 04:55:34;;;;;;;6.32;5.00;;;-1.10;99.90;;;;;;4974602;28;20490;-63
2023/03/03 04:58:00;;;;;;;5.70;4.95;;;-1.10;99.90;;;;;;4979374;28;20532;-63
2023/03/03 05:00:25;;;;;;;4.35;3.95;;;-1.20;99.90;;;;;;4974510;28;20122;-63
2023/03/03 05:02:51;;;;;;;6.70;4.22;;;-1.20;99.90;;;;;;4976634;28;20581;-63
2023/03/03 05:05:17;;;;;;;6.95;4.43;;;-1.20;99.90;;;;;;4978512;28;20121;-63
2023/03/03 05:07:42;;;;;;;6.72;4.35;;;-1.20;99.90;;;;;;4956359;28;20113;-63
2023/03/03 05:10:09;;;;;;;6.45;5.18;;;-1.30;99.90;;;;;;4959558;28;20109;-63
2023/03/03 05:12:35;;;;;;;6.65;5.03;;;-1.30;99.90;;;;;;4971350;28;20038;-63
2023/03/03 05:15:00;;;;;;;6.57;5.32;;;-1.40;99.90;;;;;;4985822;28;20430;-63
2023/03/03 05:17:26;;;;;;;4.88;4.38;;;-1.40;99.90;;;;;;4982155;28;20039;-63
2023/03/03 05:19:53;;;;;;;8.73;4.78;;;-1.40;99.90;;;;;;4984841;28;20046;-63
2023/03/03 05:22:18;;;;;;;6.03;4.22;;;-1.40;99.90;;;;;;4982107;28;20486;-63
2023/03/03 05:24:47;;;;;;;5.60;4.40;;;-1.50;99.90;;;;;;4983405;28;20066;-63
2023/03/03 05:27:14;;;;;;;6.45;4.68;;;-1.50;99.90;;;;;;4985137;28;20069;-63
2023/03/03 05:29:39;;;;;;;7.10;5.38;;;-1.60;99.90;;;;;;4982261;28;20053;-63
2023/03/03 05:32:05;;;;;;;4.78;4.28;;;-1.60;99.90;;;;;;4984363;28;20046;-63
2023/03/03 05:34:31;;;;;;;6.13;4.18;;;-1.70;99.90;;;;;;4970266;28;20097;-63
2023/03/03 05:36:56;;;;;;;5.13;4.18;;;-1.70;99.90;;;;;;4985175;28;20046;-63
2023/03/03 05:39:22;;;;;;;4.45;3.90;;;-1.70;99.90;;;;;;4982683;28;20511;-63
2023/03/03 05:41:48;;;;;;;6.60;4.55;;;-1.70;99.90;;;;;;4984022;28;20573;-63
2023/03/03 05:44:13;;;;;;;3.65;3.35;;;-1.70;99.90;;;;;;4983295;28;20046;-63
2023/03/03 05:46:39;;;;;;;4.28;3.88;;;-1.80;99.90;;;;;;4981726;28;20050;-63
2023/03/03 05:49:05;;;;;;;3.72;3.42;;;-1.80;99.90;;;;;;4985614;28;20090;-63
2023/03/03 05:51:30;;;;;;;5.25;3.75;;;-1.80;99.90;;;;;;4980939;28;20473;-63
2023/03/03 05:53:56;;;;;;;7.43;3.63;;;-1.80;99.90;;;;;;4986326;28;20050;-63
2023/03/03 05:56:22;;;;;;;3.85;3.55;;;-1.80;99.90;;;;;;4981962;28;20042;-63
2023/03/03 05:58:48;;;;;;;3.55;3.25;;;-1.80;99.90;;;;;;4984472;28;20489;-63
2023/03/03 06:01:13;;;;;;;3.60;3.30;;;-1.70;99.90;;;;;;4981696;28;20435;-63
2023/03/03 06:03:39;;;;;;;3.45;3.10;;;-1.70;99.90;;;;;;4981423;28;20046;-63
2023/03/03 06:06:05;;;;;;;5.13;3.20;;;-1.70;99.90;;;;;;4961581;28;20065;-63
2023/03/03 06:08:31;;;;;;;3.25;2.95;;;-1.70;99.90;;;;;;4966846;28;20046;-63
2023/03/03 06:10:57;;;;;;;4.55;3.13;;;-1.60;99.90;;;;;;4968739;28;20105;-63
2023/03/03 06:13:23;;;;;;;3.63;3.33;;;-1.60;99.90;;;;;;4969078;28;20043;-63
2023/03/03 06:15:48;;;;;;;7.18;2.80;;;-1.60;99.90;;;;;;4979590;28;20038;-63
2023/03/03 06:18:14;;;;;;;2.85;2.65;;;-1.50;99.90;;;;;;4968566;28;20166;-63
2023/03/03 06:20:40;;;;;;;3.30;3.10;;;-1.50;99.90;;;;;;4976573;28;20109;-63
2023/03/03 06:23:06;;;;;;;3.38;2.75;;;-1.60;99.90;;;;;;4968710;28;20130;-63
2023/03/03 06:25:34;;;;;;;2.92;2.72;;;-1.60;99.90;;;;;;4967485;28;20050;-63
2023/03/03 06:28:00;;;;;;;2.83;2.63;;;-1.60;99.90;;;;;;4968729;28;20113;-63
2023/03/03 06:30:27;;;;;;;4.60;3.38;;;-1.60;99.90;;;;;;4954181;28;20062;-63
2023/03/03 06:32:53;;;;;;;3.17;2.90;;;-1.70;99.90;;;;;;4968111;28;20050;-63
2023/03/03 06:35:19;;;;;;;3.30;3.00;;;-1.70;99.90;;;;;;4971685;28;20122;-63
2023/03/03 06:37:45;;;;;;;3.10;2.90;;;-1.70;99.90;;;;;;4967783;28;20058;-63
2023/03/03 06:40:11;;;;;;;4.53;2.80;;;-1.70;99.90;;;;;;4968812;28;20249;-63
2023/03/03 06:42:37;;;;;;;3.17;2.97;;;-1.70;99.90;;;;;;4967375;28;20501;-63
2023/03/03 06:45:03;;;;;;;3.40;3.20;;;-1.60;99.90;;;;;;4968145;28;20041;-63
2023/03/03 06:47:29;;;;;;;3.00;2.80;;;-1.50;99.90;;;;;;4967979;28;20051;-63
2023/03/03 06:49:54;;;;;;;4.35;3.47;;;-1.40;99.90;;;;;;4967985;28;20250;-63
2023/03/03 06:52:24;;;;;;;3.70;3.40;;;-1.40;99.90;;;;;;4967431;28;20046;-63
2023/03/03 06:54:54;;;;;;;4.45;4.03;;;-1.40;99.90;;;;;;4968002;28;20043;-63
2023/03/03 06:57:31;;;;;;;6.80;4.00;;;-1.30;99.90;;;;;;4968519;28;20082;-63
2023/03/03 07:00:14;;;;;;;4.30;3.90;;;-1.20;99.90;;;;;;4966314;28;20047;-63
2023/03/03 07:02:40;;;;;;;4.10;3.70;;;-1.10;99.90;;;;;;4968961;28;20050;-63
2023/03/03 07:05:16;;;;;;;5.53;3.97;;;-0.90;99.90;;;;;;4977922;28;20451;-63
2023/03/03 07:07:43;;;;;;;8.45;4.20;;;-0.70;99.90;;;;;;4967990;28;20046;-63
2023/03/03 07:10:24;;;;;;;4.72;4.30;;;-0.50;99.90;;;;;;4967432;28;20050;-63
2023/03/03 07:12:50;;;;;;;4.28;3.97;;;-0.30;99.90;;;;;;4966513;28;20473;-63
2023/03/03 07:15:20;;;;;;;4.63;4.22;;;-0.20;99.90;;;;;;4959733;28;20544;-63
2023/03/03 07:17:53;;;;;;;6.50;4.15;;;0.00;99.90;;;;;;4968263;28;20579;-63
2023/03/03 07:20:23;;;;;;;6.43;3.97;;;0.10;99.90;;;;;;4967806;28;20062;-63
2023/03/03 07:22:49;;;;;;;4.40;4.03;;;0.10;99.90;;;;;;4967287;28;20051;-63
2023/03/03 07:25:29;;;;;;;9.18;4.13;;;0.10;99.90;;;;;;4953113;28;20046;-63
2023/03/03 07:27:59;;;;;;;5.03;4.25;;;0.10;99.90;;;;;;4983728;28;20039;-63
2023/03/03 07:30:27;;;;;;;5.63;3.60;;;0.10;99.90;;;;;;4966280;28;20157;-64
2023/03/03 07:32:56;;;;;;;4.45;4.07;;;0.20;99.90;;;;;;4973863;28;20045;-63
2023/03/03 07:35:41;;;;;;;4.18;3.88;;;0.20;99.90;;;;;;4973126;28;20070;-63
2023/03/03 07:38:26;;;;;;;4.93;4.03;;;0.20;99.90;;;;;;4973581;28;20130;-63
2023/03/03 07:40:54;;;;;;;4.50;4.10;;;0.20;99.90;;;;;;4934662;28;20059;-64
2023/03/03 07:43:35;;;;;;;6.85;4.55;;;0.30;99.90;;;;;;4953598;28;20256;-63
2023/03/03 07:46:10;;;;;;;8.40;3.95;;;0.30;99.90;;;;;;4962593;28;20062;-63
2023/03/03 07:48:40;;;;;;;5.25;3.83;;;0.40;99.90;;;;;;4975121;28;20050;-63
2023/03/03 07:51:17;;;;;;;;;;;0.50;99.90;;;;;;4971901;28;20386;-64
2023/03/03 07:53:43;;;;;;;4.38;3.95;;;0.50;99.90;;;;;;4976528;28;20438;-63
2023/03/03 07:56:35;;;;;;;8.57;4.68;;;0.60;99.90;;;;;;4970398;28;20051;-64
2023/03/03 07:59:24;;;;;;;7.45;4.78;;;0.60;99.90;;;;;;4977463;28;20130;-64
2023/03/03 08:01:56;;;;;;;4.53;4.13;;;0.70;99.90;;;;;;4975434;28;20042;-63
2023/03/03 08:04:38;;;;;;;5.80;4.57;;;0.80;99.90;;;;;;4964621;28;20031;-64
2023/03/03 08:07:12;;;;;;;6.60;4.80;;;0.90;99.90;;;;;;4976996;28;21518;-64
2023/03/03 08:09:55;;;;;;;4.68;4.28;;;1.00;99.90;;;;;;4966077;28;20042;-64
2023/03/03 08:12:41;;;;;;;15.63;5.10;;;1.00;99.90;;;;;;4967126;28;20471;-64
2023/03/03 08:15:30;;;;;;;5.85;4.78;;;1.10;99.90;;;;;;4950029;28;20532;-64
2023/03/03 08:17:59;;;;;;;8.02;5.00;;;1.20;99.90;;;;;;4968805;28;20641;-64
2023/03/03 08:20:28;;;;;;;6.35;4.60;;;1.20;99.90;;;;;;4975408;28;20050;-64
2023/03/03 08:22:54;;;;;;;5.22;4.75;;;1.40;99.90;;;;;;4965824;28;20054;-64
2023/03/03 08:25:19;;;;;;;8.20;5.13;;;1.50;99.90;;;;;;4967000;28;20400;-64
2023/03/03 08:27:45;;;;;;;8.88;5.55;;;1.60;99.90;;;;;;4966920;28;20053;-64
2023/03/03 08:30:11;;;;;;;7.68;5.28;;;1.80;99.90;;;;;;4975876;28;20039;-64
2023/03/03 08:32:37;;;;;;;7.10;5.60;;;2.00;99.90;;;;;;4961100;28;20078;-65
2023/03/03 08:35:03;;;;;;;6.75;5.38;;;2.20;99.90;;;;;;4967772;28;20070;-64
2023/03/03 08:37:28;;;;;;;6.97;4.50;;;2.30;99.90;;;;;;4974169;28;20050;-64
2023/03/03 08:39:54;;;;;;;7.85;5.50;;;2.40;99.90;;;;;;4972389;28;20505;-64
2023/03/03 08:42:20;;;;;;;10.23;5.68;;;2.30;99.90;;;;;;4970119;28;20047;-63
2023/03/03 08:44:45;;;;;;;5.43;4.80;;;2.30;99.90;;;;;;4973710;28;20062;-63
2023/03/03 08:47:11;;;;;;;12.90;5.95;;;2.30;99.90;;;;;;4973602;28;20078;-63
2023/03/03 08:49:37;;;;;;;15.30;6.00;;;2.40;99.90;;;;;;4980578;28;20047;-63
2023/03/03 08:52:03;;;;;;;10.30;5.90;;;2.30;99.90;;;;;;4972301;28;20111;-63
2023/03/03 08:54:28;;;;;;;8.75;5.88;;;2.30;99.90;;;;;;4973828;28;20043;-63
2023/03/03 08:56:54;;;;;;;10.15;5.95;;;2.40;99.90;;;;;;4978601;28;20031;-63
2023/03/03 08:59:21;;;;;;;10.68;5.50;;;2.40;99.90;;;;;;4979676;28;20403;-63
2023/03/03 09:01:46;;;;;;;8.13;6.22;;;2.40;99.90;;;;;;4973798;28;20058;-63
2023/03/03 09:04:12;;;;;;;8.10;6.10;;;2.40;99.90;;;;;;4972054;28;20038;-63
2023/03/03 09:06:38;;;;;;;10.68;5.07;;;2.50;99.90;;;;;;4971281;28;20450;-63
2023/03/03 09:09:04;;;;;;;8.38;5.43;;;2.50;99.90;;;;;;4976740;28;20415;-63
2023/03/03 09:11:31;;;;;;;6.03;4.15;;;2.50;99.90;;;;;;4970277;28;20677;-63
2023/03/03 09:14:17;;;;;;;6.68;5.30;;;2.50;99.90;;;;;;4968345;28;20057;-63
2023/03/03 09:17:02;;;;;;;10.20;5.25;;;2.70;99.90;;;;;;4972378;28;20522;-63
2023/03/03 09:19:32;;;;;;;8.65;4.63;;;2.80;99.90;;;;;;4971311;28;20055;-63
2023/03/03 09:22:10;;;;;;;5.18;4.15;;;2.80;99.90;;;;;;4962204;28;20054;-63
2023/03/03 09:24:36;;;;;;;10.25;3.83;;;3.00;99.90;;;;;;4971441;28;20489;-63
2023/03/03 09:27:14;;;;;;;11.70;4.82;;;3.10;99.90;;;;;;4968459;28;20133;-63
2023/03/03 09:29:40;;;;;;;7.50;3.95;;;3.20;99.90;;;;;;4978691;28;20141;-63
2023/03/03 09:32:21;;;;;;;6.40;3.83;;;3.30;99.90;;;;;;4968599;28;20507;-63
2023/03/03 09:34:47;;;;;;;9.48;4.45;;;3.40;99.90;;;;;;4978729;28;20038;-63
2023/03/03 09:37:35;;;;;;;5.25;4.05;;;3.60;99.90;;;;;;4970660;28;20054;-63
2023/03/03 09:40:30;;;;;;;11.63;4.53;;;3.70;99.90;;;;;;4967767;28;20046;-63
2023/03/03 09:43:37;;;;;;;5.93;4.13;;;3.80;99.90;;;;;;4973511;28;20051;-63
2023/03/03 09:46:38;;;;;;;10.60;3.50;;;4.00;99.90;;;;;;4931046;28;20495;-63
2023/03/03 09:49:16;;;;;;;6.13;4.30;;;4.00;99.90;;;;;;4984074;28;20484;-63
2023/03/03 09:52:09;;;;;;;6.78;3.67;;;4.20;99.90;;;;;;4972987;28;20074;-63
2023/03/03 09:54:46;;;;;;;6.32;4.50;;;4.20;99.90;;;;;;4973662;28;20058;-63
2023/03/03 09:57:24;;;;;;;8.18;4.57;;;4.30;99.90;;;;;;4956145;28;20109;-63
2023/03/03 10:00:14;;;;;;;9.73;5.10;;;4.40;99.90;;;;;;4972677;28;20051;-63
2023/03/03 10:02:51;;;;;;;6.55;4.68;;;4.50;99.90;;;;;;4971104;28;20485;-63
2023/03/03 10:05:35;;;;;;;6.30;4.82;;;4.70;99.90;;;;;;4972502;28;20532;-63
2023/03/03 10:08:38;;;;;;;8.75;5.07;;;4.80;99.90;;;;;;4967780;28;20046;-63
2023/03/03 10:11:16;;;;;;;10.10;4.25;;;5.00;99.90;;;;;;4969173;28;20796;-63
2023/03/03 10:13:54;;;;;;;4.85;4.00;;;5.10;99.90;;;;;;4970177;28;20047;-63
2023/03/03 10:17:10;;;;;;;13.32;4.63;;;5.20;99.90;;;;;;4972673;28;20505;-63
2023/03/03 10:19:48;;;;;;;9.82;4.43;;;5.30;99.90;;;;;;4938032;28;20521;-66
2023/03/03 10:22:13;;;;;;;7.95;4.13;;;5.40;99.90;;;;;;4974035;28;20055;-63
2023/03/03 10:25:04;;;;;;;9.60;4.40;;;5.50;99.90;;;;;;4965562;28;20127;-63
2023/03/03 10:27:29;;;;;;;6.60;3.50;;;5.50;99.90;;;;;;4954143;28;20053;-63
2023/03/03 10:29:58;;;;;;;6.82;3.95;;;5.60;99.90;;;;;;4953429;28;20055;-63
2023/03/03 10:32:44;;;;;;;8.70;4.00;;;5.60;99.90;;;;;;4973797;28;20429;-63
2023/03/03 10:35:38;;;;;;;20.88;4.50;;;5.70;99.90;;;;;;4978076;28;20050;-63
2023/03/03 10:38:18;;;;;;;14.05;4.30;;;5.80;99.90;;;;;;4972680;28;20062;-67
2023/03/03 10:41:18;;;;;;;10.75;4.20;;;5.90;99.90;;;;;;4976863;28;20066;-63
2023/03/03 10:44:24;;;;;;;9.80;3.93;;;6.00;99.90;;;;;;4969284;28;20084;-63
2023/03/03 10:46:57;;;;;;;9.85;4.72;;;6.10;99.90;;;;;;4972257;28;20048;-63
2023/03/03 10:49:55;;;;;;;7.20;4.13;;;6.20;99.90;;;;;;4971803;28;20520;-63
2023/03/03 10:52:36;;;;;;;10.18;4.68;;;6.30;99.90;;;;;;4975079;28;20065;-63
2023/03/03 10:55:19;;;;;;;12.38;2.80;;;6.60;99.90;;;;;;4971254;28;20540;-63
2023/03/03 10:57:48;;;;;;;7.72;1.42;;;6.50;99.90;;;;;;4947214;28;20126;-63
2023/03/03 11:00:26;;;;;;;5.68;1.45;;;6.50;99.90;;;;;;4972223;28;20818;-62
2023/03/03 11:02:55;;;;;;;3.55;1.00;;;6.50;99.90;;;;;;4976306;28;20478;-62
2023/03/03 11:05:42;;;;;;;4.57;0.70;;;6.50;99.90;;;;;;4973383;28;20053;-62
2023/03/03 11:08:28;;;;;;;3.17;1.02;;;6.60;99.90;;;;;;4979437;28;20100;-62
2023/03/03 11:11:23;;;;;;;1.85;0.80;;;6.70;99.90;;;;;;4967059;28;20039;-63
2023/03/03 11:13:55;;;;;;;6.00;0.93;;;6.80;97.00;;;;;;4955832;28;20054;-63
2023/03/03 11:16:29;;;;;;;1.33;0.60;;;6.90;94.40;;;;;;4967734;28;20082;-63
2023/03/03 11:19:10;;;;;;;5.43;0.70;;;6.90;91.50;;;;;;4966384;28;20047;-63
2023/03/03 11:22:13;;;;;;;6.53;0.93;;;7.00;92.40;;;;;;4977276;28;20043;-62
2023/03/03 11:25:16;;;;;;;7.82;0.90;;;7.10;91.20;;;;;;4967454;28;20465;-62
2023/03/03 11:28:06;;;;;;;4.47;0.63;;;7.10;90.00;;;;;;4966758;28;20051;-63
2023/03/03 11:30:38;;;;;;;7.22;1.17;;;7.10;89.80;;;;;;4965136;28;20042;-62
2023/03/03 11:33:26;;;;;;;7.35;1.63;;;7.10;89.10;;;;;;4964376;28;20069;-81
2023/03/03 11:35:54;;;;;;;4.93;1.45;;;7.00;89.30;;;;;;4974207;28;20391;-63
2023/03/03 11:38:30;;;;;;;4.65;0.93;;;7.00;90.70;;;;;;4958970;28;20059;-62
2023/03/03 11:41:01;;;;;;;6.47;0.80;;;7.00;87.70;;;;;;4979902;28;20399;-62
2023/03/03 11:43:51;;;;;;;5.55;1.10;;;6.90;89.20;;;;;;4942813;28;20536;-62
2023/03/03 11:46:55;;;;;;;3.60;0.80;;;6.90;88.90;;;;;;4970401;28;20507;-62
2023/03/03 11:50:02;;;;;;;11.05;1.30;;;6.70;85.50;;;;;;4926862;28;20066;-65
2023/03/03 11:52:39;;;;;;;3.97;0.70;;;6.80;85.30;;;;;;4978980;28;20053;-62
2023/03/03 11:55:19;;;;;;;6.13;1.00;;;6.90;84.90;;;;;;4970614;28;20101;-62
2023/03/03 11:57:51;;;;;;;8.85;1.08;;;6.80;84.70;;;;;;4951139;28;20047;-62
2023/03/03 12:00:32;;;;;;;2.65;0.95;;;6.90;86.20;;;;;;4982063;28;20045;-62
2023/03/03 12:03:26;;;;;;;7.07;1.40;;;7.10;85.40;;;;;;4977198;28;20057;-62
2023/03/03 12:06:14;;;;;;;7.32;1.00;;;7.30;82.30;;;;;;4969478;28;20454;-62
2023/03/03 12:08:57;;;;;;;13.05;1.73;;;7.30;82.10;;;;;;4933513;28;20046;-62
2023/03/03 12:11:34;;;;;;;8.00;0.90;;;7.30;74.60;;;;;;4965830;28;20042;-68
2023/03/03 12:14:05;;;;;;;6.53;1.17;;;7.40;78.20;;;;;;4966953;28;20058;-62
2023/03/03 12:16:40;;;;;;;9.88;0.95;;;7.40;77.40;;;;;;4970846;28;20174;-62
2023/03/03 12:19:27;;;;;;;4.72;1.27;;;7.50;78.90;;;;;;4971371;28;20478;-62
2023/03/03 12:22:01;;;;;;;11.77;1.17;;;7.50;72.80;;;;;;4978483;28;20081;-62
2023/03/03 12:24:35;;;;;;;6.45;1.10;;;7.50;74.80;;;;;;4975260;28;20042;-62
2023/03/03 12:27:13;;;;;;;6.70;1.10;;;7.60;75.80;;;;;;4985400;28;20521;-62
2023/03/03 12:29:52;;;;;;;7.88;2.28;;;7.60;74.90;;;;;;4973884;28;20053;-62
2023/03/03 12:32:42;;;;;;;6.70;1.60;;;7.60;77.00;;;;;;4972175;28;20477;-62
2023/03/03 12:35:23;;;;;;;11.02;1.75;;;7.70;76.70;;;;;;4977783;28;20147;-62
2023/03/03 12:38:37;;;;;;;7.93;1.65;;;7.80;75.20;;;;;;4982556;28;20110;-62
2023/03/03 12:41:25;;;;;;;15.75;2.00;;;7.80;77.80;;;;;;4979093;28;20069;-62
2023/03/03 12:43:59;;;;;;;13.50;4.60;;;7.80;76.60;;;;;;4987324;28;20061;-62
2023/03/03 12:46:42;;;;;;;5.65;1.15;;;7.90;81.10;;;;;;4982628;28;20057;-62
2023/03/03 12:49:08;;;;;;;10.20;1.40;;;7.90;74.90;;;;;;4981848;28;20445;-62
2023/03/03 12:52:06;;;;;;;10.52;1.83;;;7.80;71.40;;;;;;4977606;28;20061;-62
2023/03/03 12:55:00;;;;;;;7.35;1.23;;;7.90;76.00;;;;;;4971499;28;20050;-63
2023/03/03 12:57:55;;;;;;;14.85;1.52;;;8.00;77.70;;;;;;4978478;28;20038;-63
2023/03/03 13:00:40;;;;;;;7.20;2.17;;;8.00;76.10;;;;;;4963147;28;20109;-64
2023/03/03 13:03:27;;;;;;;8.25;2.13;;;7.90;75.30;;;;;;4978623;28;20054;-64
2023/03/03 13:06:14;;;;;;;4.53;1.00;;;7.90;75.70;;;;;;4976212;28;20053;-63
2023/03/03 13:08:58;;;;;;;5.45;1.45;;;7.80;69.90;;;;;;4979040;28;20066;-64
2023/03/03 13:11:39;;;;;;;9.00;1.35;;;7.70;71.90;;;;;;4952650;28;20097;-63
2023/03/03 13:14:20;;;;;;;8.02;1.77;;;7.70;74.80;;;;;;4970069;28;20263;-63